createdAt,value
2018-05-23T00:00:21.196Z,55.33
2018-05-23T00:02:52.990Z,56.04
2018-05-23T00:05:24.207Z,55.91
2018-05-23T00:07:55.704Z,54.89
2018-05-23T00:10:26.976Z,58.08
2018-05-23T00:12:58.762Z,58.99
2018-05-23T00:15:30.508Z,58.53
2018-05-23T00:18:01.902Z,59.58
2018-05-23T00:20:33.312Z,59.66
2018-05-23T00:23:05.096Z,59.65
2018-05-23T00:25:36.969Z,59.36
2018-05-23T00:28:08.592Z,59.12
2018-05-23T00:30:40.668Z,59.28
2018-05-23T00:33:11.825Z,58.00
2018-05-23T00:35:42.932Z,56.18
2018-05-23T00:38:14.228Z,56.22
2018-05-23T00:40:45.320Z,59.16
2018-05-23T00:43:16.635Z,59.06
2018-05-23T00:45:47.692Z,60.16
2018-05-23T00:48:19.347Z,58.67
2018-05-23T00:50:50.835Z,57.64
2018-05-23T00:53:21.983Z,59.58
2018-05-23T00:55:53.532Z,60.90
2018-05-23T00:58:24.779Z,61.62
2018-05-23T01:00:56.621Z,61.49
2018-05-23T01:03:31.754Z,60.76
2018-05-23T01:06:03.921Z,57.87
2018-05-23T01:08:35.466Z,56.86
2018-05-23T01:11:09.992Z,61.99
2018-05-23T01:13:41.159Z,61.37
2018-05-23T01:16:13.285Z,59.01
2018-05-23T01:18:44.415Z,60.82
2018-05-23T01:21:15.989Z,59.41
2018-05-23T01:23:48.084Z,57.52
2018-05-23T01:26:19.677Z,57.17
2018-05-23T01:28:51.635Z,57.68
2018-05-23T01:31:22.647Z,61.26
2018-05-23T01:33:56.559Z,62.16
2018-05-23T01:36:28.116Z,63.37
2018-05-23T01:38:59.059Z,64.53
2018-05-23T01:41:30.493Z,62.02
2018-05-23T01:44:02.236Z,58.50
2018-05-23T01:46:33.803Z,57.72
2018-05-23T01:49:38.503Z,57.79
2018-05-23T01:52:09.787Z,60.59
2018-05-23T01:54:41.466Z,57.90
2018-05-23T01:57:13.520Z,58.21
2018-05-23T01:59:45.175Z,59.66
2018-05-23T02:02:16.847Z,62.12
2018-05-23T02:04:48.776Z,58.34
2018-05-23T02:07:20.367Z,60.48
2018-05-23T02:09:52.012Z,58.59
2018-05-23T02:12:24.032Z,58.61
2018-05-23T02:14:55.656Z,65.09
2018-05-23T02:17:29.561Z,64.89
2018-05-23T02:20:01.020Z,61.25
2018-05-23T02:22:36.622Z,59.52
2018-05-23T02:25:08.825Z,58.39
2018-05-23T02:27:40.401Z,57.88
2018-05-23T02:30:11.345Z,58.08
2018-05-23T02:32:43.040Z,59.24
2018-05-23T02:35:14.400Z,61.25
2018-05-23T02:37:45.676Z,62.47
2018-05-23T02:40:18.345Z,63.75
2018-05-23T02:42:49.318Z,65.75
2018-05-23T02:45:20.295Z,65.62
2018-05-23T02:47:52.058Z,61.95
2018-05-23T02:50:24.556Z,60.27
2018-05-23T02:52:55.519Z,60.37
2018-05-23T02:55:27.632Z,64.40
2018-05-23T02:57:59.379Z,61.62
2018-05-23T03:00:30.983Z,60.21
2018-05-23T03:03:03.236Z,60.87
2018-05-23T03:05:36.307Z,61.21
2018-05-23T03:08:08.335Z,59.56
2018-05-23T03:10:40.428Z,59.16
2018-05-23T03:13:12.242Z,59.66
2018-05-23T03:15:43.220Z,63.29
2018-05-23T03:18:14.781Z,65.06
2018-05-23T03:21:02.652Z,67.45
2018-05-23T03:23:33.981Z,62.10
2018-05-23T03:26:05.903Z,67.38
2018-05-23T03:28:37.307Z,68.01
2018-05-23T03:31:08.933Z,65.94
2018-05-23T03:33:40.560Z,66.79
2018-05-23T03:36:12.059Z,64.16
2018-05-23T03:38:44.085Z,64.48
2018-05-23T03:41:16.107Z,65.19
2018-05-23T03:43:48.236Z,62.64
2018-05-23T03:46:19.991Z,60.89
2018-05-23T03:48:51.305Z,59.86
2018-05-23T03:51:22.858Z,60.91
2018-05-23T03:53:54.884Z,61.08
2018-05-23T03:56:26.192Z,63.38
2018-05-23T03:58:58.028Z,62.63
2018-05-23T04:02:39.588Z,61.25
2018-05-23T04:07:24.035Z,62.37
2018-05-23T04:10:11.524Z,61.69
2018-05-23T04:12:43.283Z,60.15
2018-05-23T04:18:16.731Z,62.74
2018-05-23T04:20:47.772Z,62.40
2018-05-23T04:23:19.714Z,60.19
2018-05-23T04:25:51.985Z,62.50
2018-05-23T04:28:23.567Z,60.55
2018-05-23T04:30:55.400Z,59.81
2018-05-23T04:33:26.902Z,60.20
2018-05-23T04:35:58.156Z,59.04
2018-05-23T04:38:30.217Z,57.97
2018-05-23T04:41:01.889Z,57.18
2018-05-23T04:43:33.699Z,56.26
2018-05-23T04:46:05.859Z,56.36
2018-05-23T04:48:36.879Z,58.15
2018-05-23T04:51:08.189Z,58.68
2018-05-23T04:53:40.420Z,58.92
2018-05-23T04:56:15.763Z,57.29
2018-05-23T04:58:47.323Z,58.86
2018-05-23T05:01:18.732Z,59.87
2018-05-23T05:03:50.019Z,59.46
2018-05-23T05:06:23.472Z,59.99
2018-05-23T05:08:54.823Z,60.94
2018-05-23T05:11:25.843Z,60.77
2018-05-23T05:13:57.459Z,60.73
2018-05-23T05:16:28.831Z,60.18
2018-05-23T05:18:59.870Z,60.70
2018-05-23T05:21:30.932Z,60.69
2018-05-23T05:24:02.802Z,60.74
2018-05-23T05:26:33.790Z,60.17
2018-05-23T05:29:05.320Z,57.09
2018-05-23T05:31:36.703Z,58.44
2018-05-23T05:34:07.775Z,56.29
2018-05-23T05:36:39.112Z,57.06
2018-05-23T05:39:10.627Z,55.92
2018-05-23T05:41:41.700Z,57.05
2018-05-23T05:44:12.970Z,57.54
2018-05-23T05:46:44.168Z,57.77
2018-05-23T05:49:15.151Z,57.67
2018-05-23T05:51:46.431Z,56.76
2018-05-23T05:54:17.929Z,55.62
2018-05-23T05:56:48.956Z,54.31
2018-05-23T05:59:21.575Z,54.92
2018-05-23T06:01:52.637Z,54.94
2018-05-23T06:04:25.608Z,54.53
2018-05-23T06:06:56.973Z,54.37
2018-05-23T06:09:28.024Z,56.49
2018-05-23T06:11:59.347Z,57.56
2018-05-23T06:14:30.814Z,56.40
2018-05-23T06:17:01.800Z,56.29
2018-05-23T06:19:33.042Z,55.12
2018-05-23T06:22:04.088Z,55.49
2018-05-23T06:24:35.375Z,55.04
2018-05-23T06:27:07.234Z,54.48
2018-05-23T06:29:38.599Z,51.27
2018-05-23T06:32:10.239Z,53.21
2018-05-23T06:34:44.511Z,52.09
2018-05-23T06:37:15.789Z,50.53
2018-05-23T06:39:46.776Z,49.69
2018-05-23T06:42:18.195Z,50.62
2018-05-23T06:44:49.862Z,52.13
2018-05-23T06:47:21.529Z,51.25
2018-05-23T06:49:53.503Z,49.55
2018-05-23T06:52:24.891Z,49.89
2018-05-23T06:54:56.698Z,52.16
2018-05-23T06:57:27.979Z,52.85
2018-05-23T06:59:58.967Z,51.44
2018-05-23T07:02:30.296Z,51.52
2018-05-23T07:05:02.330Z,50.68
2018-05-23T07:07:33.987Z,52.10
2018-05-23T07:10:06.012Z,52.00
2018-05-23T07:12:37.348Z,52.63
2018-05-23T07:15:09.039Z,49.96
2018-05-23T07:17:40.956Z,52.91
2018-05-23T07:20:12.509Z,53.37
2018-05-23T07:22:44.072Z,50.96
2018-05-23T07:25:16.074Z,49.01
2018-05-23T07:27:47.535Z,51.58
2018-05-23T07:30:18.989Z,50.37
2018-05-23T07:32:52.106Z,50.11
2018-05-23T07:35:24.616Z,49.14
2018-05-23T07:37:56.111Z,48.70
2018-05-23T07:40:28.261Z,49.70
2018-05-23T07:42:59.294Z,49.32
2018-05-23T07:45:30.255Z,47.72
2018-05-23T07:48:02.205Z,48.47
2018-05-23T07:50:34.907Z,48.62
2018-05-23T07:53:06.031Z,51.54
2018-05-23T07:55:37.675Z,47.25
2018-05-23T07:58:09.406Z,47.78
2018-05-23T08:00:41.091Z,44.96
2018-05-23T08:03:12.455Z,46.66
2018-05-23T08:05:43.871Z,47.27
2018-05-23T08:08:15.904Z,44.73
2018-05-23T08:10:47.307Z,46.54
2018-05-23T08:13:18.784Z,44.69
2018-05-23T08:15:50.871Z,46.74
2018-05-23T08:18:22.655Z,43.62
2018-05-23T08:20:54.667Z,44.55
2018-05-23T08:23:26.199Z,45.23
2018-05-23T08:25:57.611Z,42.35
2018-05-23T08:28:29.367Z,42.36
2018-05-23T08:31:00.468Z,43.26
2018-05-23T08:33:32.221Z,42.10
2018-05-23T08:36:04.097Z,42.47
2018-05-23T08:38:36.086Z,40.67
2018-05-23T08:41:07.454Z,40.77
2018-05-23T08:43:39.064Z,40.46
2018-05-23T08:46:11.099Z,39.55
2018-05-23T08:48:42.836Z,41.13
2018-05-23T08:51:14.619Z,41.57
2018-05-23T08:53:46.268Z,42.83
2018-05-23T08:56:17.939Z,40.93
2018-05-23T08:58:49.311Z,41.98
2018-05-23T09:01:20.762Z,41.73
2018-05-23T09:03:52.111Z,41.22
2018-05-23T09:06:23.453Z,40.10
2018-05-23T09:08:54.399Z,40.94
2018-05-23T09:11:26.145Z,40.79
2018-05-23T09:13:57.399Z,41.61
2018-05-23T09:16:28.869Z,43.37
2018-05-23T09:18:59.819Z,42.48
2018-05-23T09:21:31.429Z,40.29
2018-05-23T09:24:03.256Z,40.91
2018-05-23T09:26:34.247Z,39.72
2018-05-23T09:29:05.411Z,40.07
2018-05-23T09:31:36.711Z,39.31
2018-05-23T09:34:15.319Z,38.82
2018-05-23T09:36:46.649Z,38.24
2018-05-23T09:39:17.626Z,37.53
2018-05-23T09:41:49.394Z,38.88
2018-05-23T09:44:21.135Z,38.19
2018-05-23T09:46:52.675Z,37.29
2018-05-23T09:49:24.699Z,37.20
2018-05-23T09:51:55.660Z,36.99
2018-05-23T09:54:27.647Z,36.15
2018-05-23T09:56:59.987Z,36.87
2018-05-23T09:59:31.000Z,37.40
2018-05-23T10:02:02.795Z,37.96
2018-05-23T10:04:33.791Z,38.22
2018-05-23T10:07:04.795Z,38.10
2018-05-23T10:09:40.115Z,39.12
2018-05-23T10:12:11.523Z,39.28
2018-05-23T10:14:47.115Z,38.26
2018-05-23T10:17:18.182Z,38.88
2018-05-23T10:19:49.220Z,40.26
2018-05-23T10:22:20.495Z,40.17
2018-05-23T10:24:51.513Z,39.92
2018-05-23T10:27:22.544Z,38.80
2018-05-23T10:29:53.643Z,40.12
2018-05-23T10:32:24.999Z,41.43
2018-05-23T10:34:56.042Z,41.75
2018-05-23T10:40:12.413Z,40.40
2018-05-23T10:42:43.380Z,39.02
2018-05-23T10:45:18.448Z,39.33
2018-05-23T10:47:49.443Z,39.96
2018-05-23T10:50:20.755Z,39.70
2018-05-23T10:52:51.763Z,38.93
2018-05-23T10:55:22.749Z,39.31
2018-05-23T10:57:54.472Z,39.02
2018-05-23T11:00:25.468Z,37.17
2018-05-23T11:02:56.796Z,39.22
2018-05-23T11:05:28.151Z,38.54
2018-05-23T11:07:59.591Z,37.78
2018-05-23T11:10:30.872Z,39.31
2018-05-23T11:13:01.901Z,37.34
2018-05-23T11:15:32.951Z,37.00
2018-05-23T11:18:04.295Z,37.81
2018-05-23T11:20:35.303Z,37.53
2018-05-23T11:23:06.421Z,35.86
2018-05-23T11:25:37.777Z,36.76
2018-05-23T11:28:32.381Z,34.77
2018-05-23T11:31:03.914Z,37.09
2018-05-23T11:33:34.907Z,37.10
2018-05-23T11:36:06.404Z,37.25
2018-05-23T11:38:37.847Z,36.30
2018-05-23T11:41:08.923Z,36.60
2018-05-23T11:43:40.527Z,36.90
2018-05-23T11:46:11.574Z,37.56
2018-05-23T11:48:42.927Z,37.92
2018-05-23T11:51:14.038Z,36.54
2018-05-23T11:53:45.070Z,36.54
2018-05-23T11:56:16.338Z,36.94
2018-05-23T11:58:47.331Z,36.59
2018-05-23T12:01:18.403Z,35.18
2018-05-23T12:03:49.712Z,37.51
2018-05-23T12:06:20.751Z,36.71
2018-05-23T12:08:51.799Z,35.46
2018-05-23T12:11:23.169Z,35.91
2018-05-23T12:13:54.283Z,34.75
2018-05-23T12:16:25.773Z,34.56
2018-05-23T12:18:56.778Z,35.60
2018-05-23T12:21:27.758Z,36.27
2018-05-23T12:23:59.015Z,35.58
2018-05-23T12:26:30.555Z,35.35
2018-05-23T12:29:01.581Z,35.41
2018-05-23T12:31:32.907Z,35.73
2018-05-23T12:34:03.957Z,35.95
2018-05-23T12:36:35.292Z,36.16
2018-05-23T12:39:07.548Z,34.63
2018-05-23T12:41:39.887Z,34.79
2018-05-23T12:44:11.388Z,35.47
2018-05-23T12:46:42.465Z,35.23
2018-05-23T12:49:14.034Z,34.36
2018-05-23T12:51:45.045Z,35.50
2018-05-23T12:54:16.239Z,35.45
2018-05-23T12:56:47.532Z,34.55
2018-05-23T12:59:18.499Z,35.79
2018-05-23T13:01:49.876Z,35.91
2018-05-23T13:04:23.382Z,36.22
2018-05-23T13:06:59.736Z,35.93
2018-05-23T13:09:31.039Z,36.78
2018-05-23T13:12:02.095Z,36.05
2018-05-23T13:14:33.081Z,35.52
2018-05-23T13:17:04.524Z,34.56
2018-05-23T13:19:35.677Z,35.44
2018-05-23T13:22:08.623Z,35.27
2018-05-23T13:24:40.181Z,35.02
2018-05-23T13:27:13.474Z,34.60
2018-05-23T13:29:45.042Z,35.56
2018-05-23T13:32:16.113Z,35.40
2018-05-23T13:34:47.207Z,35.21
2018-05-23T13:37:19.672Z,34.33
2018-05-23T13:39:50.792Z,34.74
2018-05-23T13:42:22.099Z,34.41
2018-05-23T13:44:53.195Z,34.18
2018-05-23T13:47:24.199Z,34.65
2018-05-23T13:49:55.710Z,34.58
2018-05-23T13:52:26.963Z,33.24
2018-05-23T13:54:58.019Z,33.63
2018-05-23T13:57:29.422Z,33.23
2018-05-23T14:00:01.165Z,35.84
2018-05-23T14:02:32.578Z,34.58
2018-05-23T14:05:04.377Z,34.56
2018-05-23T14:07:35.408Z,34.00
2018-05-23T14:10:07.067Z,34.44
2018-05-23T14:12:38.207Z,35.14
2018-05-23T14:15:10.907Z,35.81
2018-05-23T14:17:43.171Z,36.06
2018-05-23T14:20:15.256Z,36.23
2018-05-23T14:22:46.780Z,36.30
2018-05-23T14:25:18.201Z,35.22
2018-05-23T14:27:49.364Z,35.96
2018-05-23T14:30:20.912Z,36.35
2018-05-23T14:32:52.161Z,36.66
2018-05-23T14:35:23.643Z,36.25
2018-05-23T14:37:55.103Z,36.47
2018-05-23T14:40:27.268Z,36.37
2018-05-23T14:42:59.165Z,36.95
2018-05-23T14:45:30.355Z,36.15
2018-05-23T14:48:01.715Z,36.46
2018-05-23T14:50:33.053Z,39.63
2018-05-23T14:53:04.435Z,40.29
2018-05-23T14:55:35.859Z,41.25
2018-05-23T14:58:07.724Z,41.70
2018-05-23T15:00:39.115Z,41.93
2018-05-23T15:03:11.643Z,41.57
2018-05-23T15:05:43.039Z,41.96
2018-05-23T15:08:15.514Z,42.37
2018-05-23T15:10:47.327Z,42.61
2018-05-23T15:13:27.564Z,42.66
2018-05-23T15:15:59.327Z,43.79
2018-05-23T15:18:35.771Z,43.70
2018-05-23T15:21:09.453Z,43.69
2018-05-23T15:23:40.691Z,43.77
2018-05-23T15:26:12.475Z,43.75
2018-05-23T15:28:43.488Z,43.70
2018-05-23T15:31:14.762Z,45.42
2018-05-23T15:33:46.756Z,45.15
2018-05-23T15:36:18.228Z,43.59
2018-05-23T15:38:49.295Z,44.21
2018-05-23T15:41:20.654Z,43.99
2018-05-23T15:43:52.647Z,44.15
2018-05-23T15:46:24.704Z,45.47
2018-05-23T15:49:00.052Z,44.87
2018-05-23T15:51:31.177Z,44.65
2018-05-23T15:54:03.008Z,45.67
2018-05-23T15:56:34.209Z,45.36
2018-05-23T15:59:11.573Z,45.73
2018-05-23T16:01:45.426Z,44.79
2018-05-23T16:04:17.364Z,45.30
2018-05-23T16:06:48.685Z,44.97
2018-05-23T16:09:20.138Z,44.98
2018-05-23T16:11:51.742Z,45.23
2018-05-23T16:14:23.806Z,44.94
2018-05-23T16:16:55.207Z,44.72
2018-05-23T16:19:26.910Z,44.96
2018-05-23T16:21:58.257Z,44.40
2018-05-23T16:24:29.811Z,44.96
2018-05-23T16:27:15.896Z,46.30
2018-05-23T16:29:47.598Z,45.45
2018-05-23T16:32:19.379Z,44.75
2018-05-23T16:34:51.072Z,45.14
2018-05-23T16:37:22.400Z,45.59
2018-05-23T16:42:30.161Z,45.84
2018-05-23T16:45:01.580Z,46.37
2018-05-23T16:47:33.467Z,45.89
2018-05-23T16:50:04.895Z,45.81
2018-05-23T16:52:39.116Z,47.22
2018-05-23T16:55:11.017Z,45.31
2018-05-23T16:57:43.298Z,45.18
2018-05-23T17:00:15.193Z,45.16
2018-05-23T17:02:46.537Z,46.02
2018-05-23T17:05:24.869Z,46.61
2018-05-23T17:07:56.439Z,47.76
2018-05-23T17:10:28.449Z,48.24
2018-05-23T17:12:59.828Z,48.70
2018-05-23T17:15:31.775Z,48.51
2018-05-23T17:18:03.004Z,50.95
2018-05-23T17:20:34.893Z,49.25
2018-05-23T17:23:08.427Z,50.52
2018-05-23T17:25:40.173Z,50.27
2018-05-23T17:28:16.775Z,50.04
2018-05-23T17:30:48.165Z,50.76
2018-05-23T17:33:19.564Z,50.18
2018-05-23T17:35:50.679Z,49.93
2018-05-23T17:38:22.811Z,49.65
2018-05-23T17:40:55.187Z,50.79
2018-05-23T17:43:26.319Z,49.87
2018-05-23T17:45:57.965Z,49.76
2018-05-23T17:48:29.024Z,49.74
2018-05-23T17:51:00.406Z,50.18
2018-05-23T17:53:31.718Z,50.30
2018-05-23T17:56:03.835Z,50.91
2018-05-23T17:58:35.093Z,51.26
2018-05-23T18:01:06.582Z,49.87
2018-05-23T18:03:37.567Z,49.56
2018-05-23T18:06:09.032Z,52.97
2018-05-23T18:08:40.299Z,54.90
2018-05-23T18:11:11.742Z,56.23
2018-05-23T18:13:43.312Z,56.28
2018-05-23T18:16:15.259Z,56.53
2018-05-23T18:18:47.950Z,56.64
2018-05-23T18:21:19.267Z,54.38
2018-05-23T18:23:50.563Z,52.83
2018-05-23T18:26:21.776Z,53.95
2018-05-23T18:28:53.095Z,56.57
2018-05-23T18:31:24.100Z,57.63
2018-05-23T18:33:55.188Z,57.49
2018-05-23T18:36:26.592Z,57.59
2018-05-23T18:38:57.746Z,56.61
2018-05-23T18:41:29.991Z,57.23
2018-05-23T18:44:01.336Z,56.70
2018-05-23T18:46:32.384Z,58.09
2018-05-23T18:49:07.388Z,58.84
2018-05-23T18:51:38.767Z,58.34
2018-05-23T18:54:10.376Z,59.48
2018-05-23T18:56:41.384Z,57.67
2018-05-23T18:59:12.731Z,56.80
2018-05-23T19:01:43.899Z,57.70
2018-05-23T19:04:19.789Z,57.85
2018-05-23T19:06:55.080Z,55.73
2018-05-23T19:09:29.035Z,56.65
2018-05-23T19:12:05.171Z,55.81
2018-05-23T19:14:36.320Z,56.17
2018-05-23T19:17:07.894Z,56.80
2018-05-23T19:19:39.298Z,56.59
2018-05-23T19:22:10.530Z,56.70
2018-05-23T19:24:41.803Z,57.48
2018-05-23T19:27:13.027Z,56.96
2018-05-23T19:32:21.771Z,58.16
2018-05-23T19:34:52.935Z,59.46
2018-05-23T19:37:25.047Z,59.21
2018-05-23T19:39:56.721Z,59.22
2018-05-23T19:42:28.007Z,56.37
2018-05-23T19:45:00.170Z,56.25
2018-05-23T19:47:31.226Z,57.39
2018-05-23T19:50:02.589Z,58.86
2018-05-23T19:52:33.910Z,60.20
2018-05-23T19:55:04.991Z,58.69
2018-05-23T19:57:36.044Z,60.11
2018-05-23T20:00:09.643Z,56.90
2018-05-23T20:02:40.704Z,55.33
2018-05-23T20:05:12.094Z,55.62
2018-05-23T20:07:43.271Z,55.37
2018-05-23T20:10:14.331Z,54.36
2018-05-23T20:12:45.603Z,54.64
2018-05-23T20:15:16.784Z,54.16
2018-05-23T20:17:47.843Z,53.46
2018-05-23T20:20:19.272Z,53.02
2018-05-23T20:22:50.389Z,53.07
2018-05-23T20:25:21.719Z,51.89
2018-05-23T20:27:52.748Z,51.96
2018-05-23T20:30:23.711Z,52.48
2018-05-23T20:32:55.064Z,52.54
2018-05-23T20:35:27.016Z,53.53
2018-05-23T20:37:58.092Z,54.60
2018-05-23T20:40:29.431Z,54.85
2018-05-23T20:43:00.427Z,55.82
2018-05-23T20:45:31.411Z,55.30
2018-05-23T20:48:02.787Z,54.72
2018-05-23T20:50:33.807Z,55.38
2018-05-23T20:53:05.174Z,55.89
2018-05-23T20:55:36.225Z,54.89
2018-05-23T20:58:07.243Z,55.31
2018-05-23T21:00:38.631Z,55.97
2018-05-23T21:03:09.692Z,56.29
2018-05-23T21:05:40.717Z,55.64
2018-05-23T21:08:12.241Z,56.23
2018-05-23T21:10:43.316Z,56.66
2018-05-23T21:13:14.324Z,56.10
2018-05-23T21:15:45.649Z,56.06
2018-05-23T21:18:16.716Z,56.27
2018-05-23T21:20:47.982Z,56.78
2018-05-23T21:23:18.900Z,56.18
2018-05-23T21:25:49.909Z,56.61
2018-05-23T21:28:21.716Z,57.31
2018-05-23T21:30:52.845Z,56.35
2018-05-23T21:33:24.232Z,56.15
2018-05-23T21:35:55.938Z,57.10
2018-05-23T21:38:26.939Z,56.95
2018-05-23T21:40:58.144Z,57.75
2018-05-23T21:43:29.056Z,56.35
2018-05-23T21:46:00.255Z,57.70
2018-05-23T21:48:31.161Z,57.85
2018-05-23T21:51:02.720Z,58.05
2018-05-23T21:53:37.004Z,56.30
2018-05-23T21:56:08.084Z,56.71
2018-05-23T21:58:40.963Z,57.51
2018-05-23T22:01:14.952Z,57.22
2018-05-23T22:03:46.101Z,56.55
2018-05-23T22:06:17.145Z,56.09
2018-05-23T22:08:48.954Z,54.37
2018-05-23T22:11:20.381Z,53.62
2018-05-23T22:13:52.969Z,52.73
2018-05-23T22:16:24.384Z,53.15
2018-05-23T22:18:55.824Z,52.54
2018-05-23T22:21:27.084Z,52.37
2018-05-23T22:23:58.521Z,50.80
2018-05-23T22:26:30.197Z,49.94
2018-05-23T22:29:02.069Z,50.13
2018-05-23T22:31:33.122Z,50.43
2018-05-23T22:34:05.204Z,49.73
2018-05-23T22:36:36.324Z,49.94
2018-05-23T22:39:08.002Z,49.17
2018-05-23T22:41:39.377Z,49.37
2018-05-23T22:44:10.546Z,49.21
2018-05-23T22:46:41.509Z,49.51
2018-05-23T22:49:13.242Z,50.16
2018-05-23T22:51:44.211Z,50.03
2018-05-23T22:54:16.100Z,50.26
2018-05-23T22:56:47.493Z,50.42
2018-05-23T22:59:18.794Z,51.08
2018-05-23T23:01:50.822Z,49.29
2018-05-23T23:04:22.166Z,49.36
2018-05-23T23:06:53.164Z,49.02
2018-05-23T23:09:24.512Z,48.63
2018-05-23T23:11:55.629Z,48.45
2018-05-23T23:14:28.390Z,49.09
2018-05-23T23:16:59.314Z,48.61
2018-05-23T23:19:31.212Z,48.45
2018-05-23T23:22:02.465Z,48.70
2018-05-23T23:24:40.724Z,47.44
2018-05-23T23:27:11.984Z,48.03
2018-05-23T23:29:43.358Z,48.29
2018-05-23T23:32:22.829Z,48.71
2018-05-23T23:34:54.432Z,48.68
2018-05-23T23:37:25.419Z,48.28
2018-05-23T23:39:57.145Z,49.09
2018-05-23T23:42:28.380Z,48.90
2018-05-23T23:44:59.367Z,48.33
2018-05-23T23:47:31.152Z,48.51
2018-05-23T23:50:02.105Z,48.59
2018-05-23T23:52:33.392Z,49.14
2018-05-23T23:55:04.846Z,49.12
2018-05-23T23:57:35.778Z,48.43
